»·PEaware :: N30F KSNA-KPRC

N30F :: KSNA-KPRC

FLIGHT INFORMATION

Flight Status: Arrived
Operator: Privately registered:
United States
More flights under this callsign
Pilot: David Z. (5144)
Aircraft: CANADAIR CL-600 CHALLENGER
(CL60)
More flights by this aircraft type
Origin: KSNA John Wayne-Orange Co
United States
Destination: KPRC Love
United States
More flights between these airports :: More routes between these airports
Route: PIGGN3 AVRRY EED J6 CHILY V12 DRK
File this flight plan on PilotEdge
Remarks: RMK / SIMBRIEF
Altitude:
(Current/Filed)
39,000ft
Speed:
(Current/Filed)
477kts
Departed: 27-Aug-23 01:42 PM
Arrived: 27-Aug-23 02:31 PM
Distance/Time
Traveled:
276nm/0:49
Distance/Time
To Go:
Arrived

Flight Plot

Page will automatically refresh every two minutes.

Flight plan parsing failed; only flown route is shown


Map Options




Map Legend


Flown Route
Filed Route
Departure Airport
Arrival Airport
Navaid (VOR, NDB)
Fix

Horizontal Profiles

Position Reports

Time Latitude Longitude Heading Altitude Ground
Speed
27-Aug-23 13:17 33.672495 -117.867161 208 54ft 0kts
27-Aug-23 13:19 33.672495 -117.867161 208 54ft 0kts
27-Aug-23 13:20 33.672495 -117.867161 208 54ft 0kts
27-Aug-23 13:20 33.672495 -117.867161 208 54ft 0kts
27-Aug-23 13:21 33.672495 -117.867161 208 54ft 0kts
27-Aug-23 13:22 33.672495 -117.867161 208 54ft 0kts
27-Aug-23 13:24 33.672495 -117.867161 208 54ft 0kts
27-Aug-23 13:24 33.672495 -117.867161 208 54ft 0kts
27-Aug-23 13:25 33.672495 -117.867161 208 54ft 0kts
27-Aug-23 13:26 33.672495 -117.867161 208 54ft 0kts
27-Aug-23 13:27 33.672495 -117.867161 208 54ft 0kts
27-Aug-23 13:28 33.672495 -117.867161 208 54ft 0kts
27-Aug-23 13:29 33.672495 -117.867161 208 54ft 0kts
27-Aug-23 13:30 33.672495 -117.867161 208 54ft 0kts
27-Aug-23 13:31 33.672495 -117.867161 208 54ft 0kts
27-Aug-23 13:32 33.672495 -117.867161 208 54ft 0kts
27-Aug-23 13:33 33.672495 -117.867161 208 54ft 0kts
27-Aug-23 13:34 33.672495 -117.867161 208 54ft 0kts
27-Aug-23 13:35 33.672495 -117.867161 208 54ft 0kts
27-Aug-23 13:36 33.672523 -117.867529 325 54ft 5kts
27-Aug-23 13:37 33.676140 -117.865184 27 50ft 22kts
27-Aug-23 13:38 33.680486 -117.862731 313 46ft 7kts
27-Aug-23 13:39 33.680616 -117.862999 298 46ft 0kts
27-Aug-23 13:40 33.681228 -117.865336 205 46ft 13kts
27-Aug-23 13:41 33.651777 -117.883529 208 1395ft 207kts
27-Aug-23 13:42 33.581991 -117.897917 182 4835ft 281kts
27-Aug-23 13:43 33.510463 -117.857588 136 8963ft 288kts
27-Aug-23 13:44 33.476208 -117.763050 92 12204ft 359kts
27-Aug-23 13:45 33.505664 -117.646113 61 15879ft 387kts
27-Aug-23 13:46 33.560281 -117.531402 60 19206ft 405kts
27-Aug-23 13:47 33.581304 -117.398568 92 22080ft 421kts
27-Aug-23 13:48 33.577753 -117.254045 90 24612ft 440kts
27-Aug-23 13:49 33.605925 -117.104929 76 26673ft 462kts
27-Aug-23 13:50 33.627987 -116.950991 93 28522ft 475kts
27-Aug-23 13:51 33.623673 -116.789204 93 30177ft 490kts
27-Aug-23 13:52 33.619217 -116.625189 93 31920ft 493kts
27-Aug-23 13:53 33.614576 -116.461259 92 33854ft 488kts
27-Aug-23 13:54 33.609930 -116.298866 92 35579ft 482kts
27-Aug-23 13:55 33.605765 -116.137326 91 37153ft 475kts
27-Aug-23 13:56 33.622802 -115.980824 68 38316ft 468kts
27-Aug-23 13:57 33.668898 -115.835015 67 39345ft 463kts
27-Aug-23 13:58 33.715032 -115.688456 67 39546ft 475kts
27-Aug-23 13:59 33.777568 -115.547375 46 39562ft 481kts
27-Aug-23 14:00 33.876287 -115.438210 39 39549ft 480kts
27-Aug-23 14:01 33.976718 -115.330758 40 39547ft 480kts
27-Aug-23 14:02 34.078355 -115.221671 40 39552ft 480kts
27-Aug-23 14:03 34.179741 -115.112499 40 39552ft 481kts
27-Aug-23 14:04 34.281031 -115.003066 40 39557ft 482kts
27-Aug-23 14:05 34.381915 -114.893705 40 39573ft 481kts
27-Aug-23 14:06 34.482192 -114.784643 39 39356ft 483kts
27-Aug-23 14:07 34.581327 -114.676446 39 38316ft 476kts
27-Aug-23 14:08 34.679572 -114.567002 44 36997ft 481kts
27-Aug-23 14:09 34.747943 -114.425335 71 35650ft 492kts
27-Aug-23 14:10 34.760697 -114.258398 93 34269ft 499kts
27-Aug-23 14:11 34.756164 -114.087377 93 32876ft 503kts
27-Aug-23 14:12 34.751469 -113.917351 93 31416ft 487kts
27-Aug-23 14:13 34.746870 -113.758073 93 29975ft 454kts
27-Aug-23 14:14 34.742342 -113.608082 93 28572ft 440kts
27-Aug-23 14:15 34.737639 -113.458710 92 26753ft 440kts
27-Aug-23 14:16 34.732856 -113.311794 93 24353ft 423kts
27-Aug-23 14:17 34.728107 -113.170926 93 21969ft 400kts
27-Aug-23 14:18 34.723477 -113.037970 92 19337ft 382kts
27-Aug-23 14:19 34.718902 -112.911293 92 16766ft 365kts
27-Aug-23 14:20 34.714407 -112.789402 91 13982ft 356kts
27-Aug-23 14:21 34.710698 -112.675874 91 12839ft 306kts
27-Aug-23 14:22 34.706390 -112.573008 91 11064ft 300kts
27-Aug-23 14:23 34.722940 -112.478001 57 9454ft 288kts
27-Aug-23 14:24 34.773450 -112.405049 47 8227ft 264kts
27-Aug-23 14:25 34.814799 -112.345240 68 7947ft 203kts
27-Aug-23 14:26 34.782415 -112.299650 193 7218ft 208kts
27-Aug-23 14:27 34.732479 -112.335945 220 6876ft 198kts
27-Aug-23 14:28 34.697290 -112.373951 220 5937ft 151kts
27-Aug-23 14:29 34.665629 -112.407661 222 5080ft 148kts
27-Aug-23 14:30 34.650217 -112.423979 217 5016ft 5kts
27-Aug-23 14:31 34.648765 -112.423819 221 5020ft 9kts
27-Aug-23 14:32 34.646952 -112.424780 131 5025ft 8kts
27-Aug-23 14:33 34.646412 -112.424843 229 5029ft 3kts
27-Aug-23 14:34 34.646496 -112.424894 39 5028ft 0kts
27-Aug-23 14:35 34.646496 -112.424894 39 5028ft 0kts
27-Aug-23 14:36 34.646496 -112.424894 39 5028ft 0kts
27-Aug-23 14:37 34.646496 -112.424894 39 5028ft 0kts
27-Aug-23 14:38 34.646496 -112.424894 39 5028ft 0kts

Navigation Log

Ident Type
Flight plan parsing failed, navigation log unavailable